createdAt,value
2023-03-12T00:02:02.840Z,4.18
2023-03-12T00:04:29.965Z,3.93
2023-03-12T00:06:56.574Z,4.07
2023-03-12T00:09:23.552Z,4.18
2023-03-12T00:11:50.215Z,4.60
2023-03-12T00:14:17.196Z,4.13
2023-03-12T00:16:43.850Z,4.27
2023-03-12T00:19:13.069Z,3.50
2023-03-12T00:21:39.939Z,3.60
2023-03-12T00:24:07.712Z,4.32
2023-03-12T00:26:34.374Z,3.38
2023-03-12T00:29:00.974Z,4.20
2023-03-12T00:31:30.334Z,4.72
2023-03-12T00:33:56.995Z,4.38
2023-03-12T00:36:27.064Z,3.88
2023-03-12T00:38:55.446Z,4.47
2023-03-12T00:41:23.536Z,3.23
2023-03-12T00:43:51.173Z,4.47
2023-03-12T00:46:18.473Z,4.15
2023-03-12T00:48:45.663Z,4.38
2023-03-12T00:51:12.901Z,4.60
2023-03-12T00:53:39.416Z,4.27
2023-03-12T00:56:06.752Z,4.30
2023-03-12T00:58:33.849Z,4.93
2023-03-12T01:01:00.543Z,3.78
2023-03-12T01:03:27.249Z,4.75
2023-03-12T01:05:56.376Z,3.73
2023-03-12T01:08:23.911Z,4.13
2023-03-12T01:10:50.667Z,5.15
2023-03-12T01:13:17.810Z,4.13
2023-03-12T01:15:44.444Z,4.57
2023-03-12T01:18:11.673Z,3.00
2023-03-12T01:20:38.584Z,4.05
2023-03-12T01:23:05.090Z,4.13
2023-03-12T01:25:34.221Z,2.78
2023-03-12T01:28:00.842Z,2.97
2023-03-12T01:30:28.190Z,2.37
2023-03-12T01:32:54.862Z,3.25
2023-03-12T01:35:21.694Z,3.30
2023-03-12T01:37:48.251Z,2.83
2023-03-12T01:40:18.032Z,2.97
2023-03-12T01:42:56.188Z,2.87
2023-03-12T01:46:11.098Z,3.20
2023-03-12T01:48:45.318Z,1.67
2023-03-12T01:51:14.965Z,2.95
2023-03-12T01:53:45.272Z,2.97
2023-03-12T01:56:13.488Z,2.50
2023-03-12T01:58:44.485Z,2.67
2023-03-12T02:01:11.006Z,3.70
2023-03-12T02:03:37.758Z,3.05
2023-03-12T02:06:11.486Z,2.65
2023-03-12T02:08:42.409Z,2.00
2023-03-12T02:11:09.314Z,1.70
2023-03-12T02:13:36.626Z,2.20
2023-03-12T02:16:03.665Z,2.45
2023-03-12T02:18:30.986Z,2.05
2023-03-12T02:21:22.804Z,2.90
2023-03-12T02:24:02.515Z,2.30
2023-03-12T02:26:31.294Z,1.98
2023-03-12T02:29:00.604Z,2.40
2023-03-12T02:31:33.243Z,2.35
2023-03-12T02:34:00.628Z,2.80
2023-03-12T02:36:28.227Z,2.30
2023-03-12T02:38:55.972Z,2.08
2023-03-12T02:41:24.176Z,3.10
2023-03-12T02:44:00.641Z,1.50
2023-03-12T02:46:28.550Z,2.90
2023-03-12T02:48:56.152Z,2.28
2023-03-12T02:51:22.889Z,2.88
2023-03-12T02:53:54.762Z,2.20
2023-03-12T02:56:23.649Z,3.15
2023-03-12T02:58:50.757Z,1.63
2023-03-12T03:01:18.330Z,2.40
2023-03-12T03:03:45.565Z,3.08
2023-03-12T03:06:12.596Z,3.13
2023-03-12T03:08:39.762Z,1.65
2023-03-12T03:11:07.390Z,2.60
2023-03-12T03:13:34.141Z,1.77
2023-03-12T03:16:02.238Z,2.42
2023-03-12T03:18:30.146Z,2.40
2023-03-12T03:21:08.667Z,2.08
2023-03-12T03:23:35.774Z,2.43
2023-03-12T03:26:03.020Z,2.13
2023-03-12T03:28:30.698Z,2.08
2023-03-12T03:31:00.841Z,2.00
2023-03-12T03:33:29.538Z,1.80
2023-03-12T03:35:59.462Z,1.43
2023-03-12T03:38:28.023Z,2.05
2023-03-12T03:40:55.288Z,1.67
2023-03-12T03:43:22.805Z,1.95
2023-03-12T03:45:56.495Z,2.95
2023-03-12T03:48:23.085Z,2.37
2023-03-12T03:50:49.669Z,1.33
2023-03-12T03:53:16.179Z,2.58
2023-03-12T03:55:42.719Z,2.42
2023-03-12T03:58:09.306Z,2.38
2023-03-12T04:00:35.928Z,1.83
2023-03-12T04:03:02.541Z,2.38
2023-03-12T04:05:29.652Z,2.03
2023-03-12T04:07:56.458Z,2.55
2023-03-12T04:10:24.765Z,2.83
2023-03-12T04:12:51.505Z,2.10
2023-03-12T04:15:18.136Z,2.40
2023-03-12T04:17:44.818Z,1.98
2023-03-12T04:20:11.950Z,2.80
2023-03-12T04:22:38.510Z,2.50
2023-03-12T04:25:07.508Z,2.77
2023-03-12T04:27:35.029Z,2.67
2023-03-12T04:30:01.615Z,3.03
2023-03-12T04:32:28.408Z,2.60
2023-03-12T04:34:55.137Z,3.20
2023-03-12T04:37:21.760Z,2.07
2023-03-12T04:39:48.349Z,2.58
2023-03-12T04:42:15.135Z,3.15
2023-03-12T04:44:41.782Z,2.40
2023-03-12T04:47:08.750Z,3.13
2023-03-12T04:49:37.722Z,2.23
2023-03-12T04:52:04.715Z,3.15
2023-03-12T04:54:32.001Z,3.80
2023-03-12T04:56:58.560Z,2.95
2023-03-12T04:59:25.308Z,3.30
2023-03-12T05:01:51.985Z,3.07
2023-03-12T05:04:18.536Z,2.72
2023-03-12T05:06:45.123Z,2.83
2023-03-12T05:09:11.593Z,3.20
2023-03-12T05:11:39.777Z,3.40
2023-03-12T05:14:06.506Z,3.20
2023-03-12T05:16:33.154Z,2.55
2023-03-12T05:18:59.873Z,3.83
2023-03-12T05:21:26.710Z,2.63
2023-03-12T05:23:53.328Z,2.67
2023-03-12T05:26:23.251Z,3.83
2023-03-12T05:28:49.916Z,2.55
2023-03-12T05:31:17.283Z,2.33
2023-03-12T05:33:44.572Z,2.72
2023-03-12T05:36:12.216Z,3.65
2023-03-12T05:38:39.072Z,2.90
2023-03-12T05:41:06.569Z,2.47
2023-03-12T05:43:34.382Z,3.85
2023-03-12T05:46:04.061Z,4.00
2023-03-12T05:48:31.684Z,2.45
2023-03-12T05:50:58.594Z,3.80
2023-03-12T05:53:25.173Z,3.35
2023-03-12T05:55:51.709Z,3.33
2023-03-12T05:58:19.097Z,3.72
2023-03-12T06:00:45.898Z,3.25
2023-03-12T06:03:12.711Z,2.53
2023-03-12T06:05:39.670Z,3.90
2023-03-12T06:08:07.655Z,3.40
2023-03-12T06:10:34.404Z,2.42
2023-03-12T06:13:01.037Z,3.53
2023-03-12T06:15:27.652Z,3.83
2023-03-12T06:17:54.263Z,3.15
2023-03-12T06:20:20.940Z,3.17
2023-03-12T06:22:47.534Z,2.63
2023-03-12T06:25:14.264Z,2.67
2023-03-12T06:27:46.211Z,3.10
2023-03-12T06:30:13.478Z,3.38
2023-03-12T06:32:40.267Z,2.70
2023-03-12T06:35:07.192Z,4.30
2023-03-12T06:37:36.270Z,2.70
2023-03-12T06:40:04.911Z,3.00
2023-03-12T06:42:35.225Z,3.67
2023-03-12T06:45:02.174Z,2.50
2023-03-12T06:47:29.081Z,2.20
2023-03-12T06:49:55.690Z,3.30
2023-03-12T06:52:22.508Z,4.33
2023-03-12T06:54:49.075Z,3.85
2023-03-12T06:57:23.837Z,2.10
2023-03-12T06:59:50.793Z,3.17
2023-03-12T07:02:17.873Z,2.60
2023-03-12T07:04:44.500Z,3.13
2023-03-12T07:07:12.090Z,3.55
2023-03-12T07:09:39.454Z,2.35
2023-03-12T07:12:06.548Z,4.30
2023-03-12T07:14:33.320Z,3.42
2023-03-12T07:17:04.809Z,2.33
2023-03-12T07:19:32.210Z,3.33
2023-03-12T07:22:01.207Z,3.28
2023-03-12T07:24:27.849Z,2.50
2023-03-12T07:27:00.313Z,2.58
2023-03-12T07:29:28.413Z,2.23
2023-03-12T07:31:56.703Z,3.38
2023-03-12T07:34:25.527Z,2.88
2023-03-12T07:36:52.307Z,2.92
2023-03-12T07:39:25.887Z,2.90
2023-03-12T07:41:55.529Z,2.83
2023-03-12T07:44:22.302Z,3.42
2023-03-12T07:46:49.401Z,3.25
2023-03-12T07:49:28.667Z,3.15
2023-03-12T07:52:20.328Z,3.55
2023-03-12T07:54:59.184Z,2.63
2023-03-12T07:57:36.662Z,3.70
2023-03-12T08:00:19.642Z,2.25
2023-03-12T08:03:00.587Z,2.65
2023-03-12T08:05:27.534Z,3.72
2023-03-12T08:08:20.862Z,3.70
2023-03-12T08:11:23.262Z,4.55
2023-03-12T08:14:29.845Z,3.20
2023-03-12T08:17:02.986Z,3.17
2023-03-12T08:19:35.906Z,3.53
2023-03-12T08:22:19.495Z,3.00
2023-03-12T08:24:48.943Z,3.20
2023-03-12T08:27:17.913Z,3.08
2023-03-12T08:29:46.737Z,4.07
2023-03-12T08:35:32.190Z,1.97
2023-03-12T08:38:01.779Z,2.83
2023-03-12T08:43:36.382Z,2.92
2023-03-12T08:47:22.858Z,1.88
2023-03-12T08:49:49.684Z,3.20
2023-03-12T08:52:45.429Z,3.00
2023-03-12T08:58:51.830Z,2.80
2023-03-12T09:07:46.369Z,3.05
2023-03-12T09:10:31.328Z,2.63
2023-03-12T09:15:49.559Z,3.05
2023-03-12T09:19:35.192Z,2.53
2023-03-12T09:21:50.001Z,3.28
2023-03-12T09:24:32.021Z,3.20
2023-03-12T09:27:16.016Z,3.42
2023-03-12T09:29:59.994Z,3.28
2023-03-12T09:33:10.475Z,3.73
2023-03-12T09:47:29.774Z,3.17
2023-03-12T09:57:01.247Z,1.80
2023-03-12T09:59:27.964Z,2.08
2023-03-12T10:02:03.142Z,3.00
2023-03-12T10:05:47.465Z,2.60
2023-03-12T10:16:23.055Z,3.15
2023-03-12T10:19:49.700Z,3.67
2023-03-12T10:22:59.277Z,2.53
2023-03-12T10:26:53.330Z,3.05
2023-03-12T10:30:33.366Z,3.60
2023-03-12T11:20:33.440Z,2.90
2023-03-12T11:30:44.124Z,3.05
2023-03-12T11:35:10.989Z,2.40
2023-03-12T11:42:08.437Z,2.35
2023-03-12T11:48:36.261Z,2.38
2023-03-12T11:51:42.809Z,2.33
2023-03-12T11:54:47.320Z,3.75
2023-03-12T12:02:31.358Z,2.65
2023-03-12T12:06:25.162Z,3.05
2023-03-12T12:08:59.922Z,2.70
2023-03-12T12:10:56.382Z,3.13
2023-03-12T12:12:23.176Z,2.22
2023-03-12T12:15:39.450Z,2.13
2023-03-12T12:18:36.065Z,1.90
2023-03-12T12:21:54.926Z,2.25
2023-03-12T12:24:55.590Z,1.67
2023-03-12T12:27:31.077Z,1.35
2023-03-12T12:31:28.007Z,1.27
2023-03-12T12:40:39.423Z,1.03
2023-03-12T12:49:42.262Z,1.15
2023-03-12T12:56:18.902Z,1.93
2023-03-12T13:06:08.490Z,2.38
2023-03-12T13:20:00.645Z,2.15
2023-03-12T13:22:52.807Z,2.00
2023-03-12T13:26:38.767Z,2.15
2023-03-12T13:30:04.333Z,2.50
2023-03-12T13:36:36.074Z,1.73
2023-03-12T13:39:56.463Z,1.70
2023-03-12T13:43:27.113Z,1.70
2023-03-12T13:46:39.933Z,1.67
2023-03-12T13:49:57.967Z,1.92
2023-03-12T13:53:00.892Z,1.08
2023-03-12T13:55:59.611Z,0.80
2023-03-12T14:02:50.280Z,0.83
2023-03-12T14:05:29.014Z,1.02
2023-03-12T14:08:45.114Z,0.95
2023-03-12T14:11:36.420Z,1.00
2023-03-12T14:18:21.360Z,1.80
2023-03-12T14:25:49.091Z,1.27
2023-03-12T14:29:13.817Z,1.75
2023-03-12T14:32:40.446Z,1.30
2023-03-12T14:35:41.094Z,1.80
2023-03-12T14:45:46.446Z,1.75
2023-03-12T14:48:42.223Z,1.08
2023-03-12T14:52:48.437Z,1.60
2023-03-12T14:55:39.437Z,2.17
2023-03-12T14:58:24.549Z,1.92
2023-03-12T15:02:17.485Z,2.83
2023-03-12T15:04:54.767Z,2.70
2023-03-12T15:10:28.909Z,1.58
2023-03-12T15:13:08.388Z,1.60
2023-03-12T15:16:13.879Z,1.20
2023-03-12T15:22:30.929Z,1.23
2023-03-12T15:29:51.101Z,0.95
2023-03-12T15:36:49.597Z,1.00
2023-03-12T15:39:39.563Z,0.53
2023-03-12T15:42:25.404Z,0.77
2023-03-12T15:45:25.776Z,0.77
2023-03-12T15:49:35.919Z,1.30
2023-03-12T16:00:58.033Z,0.52
2023-03-12T16:03:50.257Z,0.80
2023-03-12T16:07:30.176Z,0.75
2023-03-12T16:10:16.873Z,1.00
2023-03-12T16:13:06.045Z,1.83
2023-03-12T16:15:48.033Z,1.33
2023-03-12T16:21:49.909Z,1.60
2023-03-12T16:32:25.804Z,1.20
2023-03-12T16:39:08.366Z,1.60
2023-03-12T16:46:07.935Z,1.43
2023-03-12T16:49:00.613Z,1.67
2023-03-12T16:52:34.726Z,2.53
2023-03-12T16:56:23.582Z,1.73
2023-03-12T16:59:08.089Z,2.05
2023-03-12T17:02:00.444Z,1.50
2023-03-12T17:05:32.826Z,1.52
2023-03-12T17:08:25.123Z,1.35
2023-03-12T17:11:33.998Z,1.88
2023-03-12T17:16:24.564Z,2.08
2023-03-12T17:18:57.045Z,1.63
2023-03-12T17:22:34.217Z,2.05
2023-03-12T17:25:17.937Z,1.10
2023-03-12T17:49:02.629Z,1.88
2023-03-12T17:58:34.821Z,1.40
2023-03-12T18:01:46.074Z,1.27
2023-03-12T18:04:58.631Z,2.60
2023-03-12T18:08:41.378Z,2.30
2023-03-12T18:10:56.784Z,2.15
2023-03-12T18:13:50.817Z,2.67
2023-03-12T18:16:24.121Z,1.60
2023-03-12T18:19:26.411Z,1.52
2023-03-12T18:25:33.494Z,1.63
2023-03-12T18:28:30.275Z,2.45
2023-03-12T18:31:02.175Z,1.92
2023-03-12T18:33:34.522Z,1.67
2023-03-12T18:36:03.902Z,1.67
2023-03-12T18:41:49.251Z,2.00
2023-03-12T18:44:33.102Z,2.05
2023-03-12T18:47:23.772Z,1.35
2023-03-12T18:49:53.259Z,1.50
2023-03-12T18:58:30.342Z,2.78
2023-03-12T19:00:59.165Z,1.92
2023-03-12T19:03:38.219Z,2.10
2023-03-12T19:06:23.764Z,2.30
2023-03-12T19:08:54.487Z,2.13
2023-03-12T19:11:25.550Z,2.65
2023-03-12T19:13:55.017Z,1.70
2023-03-12T19:16:29.898Z,2.50
2023-03-12T19:18:56.644Z,2.22
2023-03-12T19:21:45.848Z,2.75
2023-03-12T19:24:28.378Z,2.83
2023-03-12T19:27:05.298Z,2.45
2023-03-12T19:30:19.134Z,3.07
2023-03-12T19:33:12.352Z,1.75
2023-03-12T19:36:04.803Z,1.60
2023-03-12T19:42:23.216Z,2.95
2023-03-12T19:44:57.639Z,2.40
2023-03-12T19:47:46.968Z,2.33
2023-03-12T19:50:13.808Z,1.90
2023-03-12T19:53:15.625Z,2.22
2023-03-12T19:56:16.963Z,2.60
2023-03-12T19:59:31.238Z,1.13
2023-03-12T20:02:39.544Z,1.45
2023-03-12T20:05:46.168Z,1.55
2023-03-12T20:08:20.981Z,1.23
2023-03-12T20:10:53.265Z,1.52
2023-03-12T20:17:12.326Z,1.60
2023-03-12T20:19:43.937Z,1.20
2023-03-12T20:22:14.552Z,0.90
2023-03-12T20:24:41.647Z,1.58
2023-03-12T20:27:31.124Z,0.83
2023-03-12T20:30:05.379Z,1.10
2023-03-12T20:32:32.251Z,0.90
2023-03-12T20:35:05.620Z,0.73
2023-03-12T20:37:32.619Z,0.45
2023-03-12T20:40:01.877Z,0.90
2023-03-12T20:42:30.717Z,0.50
2023-03-12T20:45:10.483Z,0.57
2023-03-12T20:53:57.937Z,0.37
2023-03-12T20:56:29.839Z,0.40
2023-03-12T21:02:37.498Z,0.20
2023-03-12T21:05:04.541Z,0.40
2023-03-12T21:24:19.635Z,0.30
2023-03-12T21:59:34.855Z,0.60
2023-03-12T22:02:12.715Z,0.60
2023-03-12T22:05:12.977Z,0.88
2023-03-12T22:08:00.237Z,0.93
2023-03-12T22:10:29.453Z,0.68
2023-03-12T22:12:56.130Z,1.02
2023-03-12T22:15:24.221Z,0.45
2023-03-12T22:17:51.075Z,1.05
2023-03-12T22:20:17.811Z,0.50
2023-03-12T22:25:34.669Z,0.85
2023-03-12T22:28:18.976Z,0.55
2023-03-12T22:30:49.213Z,0.77
2023-03-12T22:33:17.958Z,0.50
2023-03-12T22:35:48.588Z,0.80
2023-03-12T22:38:15.814Z,0.60
2023-03-12T22:40:50.228Z,0.68
2023-03-12T22:43:19.330Z,1.08
2023-03-12T22:45:46.033Z,0.90
2023-03-12T22:48:15.883Z,1.00
2023-03-12T22:50:42.936Z,0.57
2023-03-12T22:53:54.924Z,0.82
2023-03-12T22:56:25.342Z,0.70
2023-03-12T22:58:52.162Z,1.37
2023-03-12T23:01:21.780Z,1.80
2023-03-12T23:03:54.240Z,1.85
2023-03-12T23:06:26.621Z,1.75
2023-03-12T23:08:55.139Z,2.00
2023-03-12T23:11:25.109Z,1.80
2023-03-12T23:13:52.858Z,2.05
2023-03-12T23:16:22.215Z,1.42
2023-03-12T23:18:49.236Z,2.03
2023-03-12T23:21:18.934Z,1.90
2023-03-12T23:23:46.180Z,2.77
2023-03-12T23:26:15.985Z,2.03
2023-03-12T23:28:43.130Z,2.92
2023-03-12T23:31:10.799Z,2.35
2023-03-12T23:33:37.789Z,2.63
2023-03-12T23:36:24.262Z,3.30
2023-03-12T23:38:51.065Z,3.13
2023-03-12T23:41:31.532Z,2.20
2023-03-12T23:43:59.189Z,2.63
2023-03-12T23:46:27.542Z,2.55
2023-03-12T23:48:54.873Z,2.17
2023-03-12T23:51:24.706Z,2.65
2023-03-12T23:53:54.937Z,3.38
2023-03-12T23:56:23.709Z,3.00
2023-03-12T23:58:51.061Z,3.70
